Terminal Aerodrome Forecast
Issued by NWS Cleveland, OH

Home | Current Version | Previous Version | Text Only | Print | Product List | Glossary On
Versions: 1 2 3 4 5 6 7 8 9 10 11 12 13 14 15 16 17 18 19 20 21 22 23 24
000
FTUS41 KCLE 281700
TAFCAK
TAF
KCAK 281720Z 2818/2918 VRB03KT P6SM SCT250
     FM290000 15004KT P6SM SCT120 OVC250
     FM290600 15006KT P6SM OVC120
     FM291200 15012KT P6SM OVC060
     FM291400 17014G20KT P6SM VCSH OVC045
      TEMPO 2914/2918 5SM -FZRA BR OVC025=

USA.gov is the U.S. government's official web portal to all federal, state and local government web resources and services.